Terminal Aerodrome Forecast
Issued by NWS Louisville, KY

Home | Current Version | Previous Version | Text Only | Print | Product List | Glossary On
Versions: 1 2 3 4 5 6 7 8 9 10 11 12 13 14 15 16 17 18 19
000
FTUS43 KLMK 251900 AAA
TAFSDF
TAF AMD
KSDF 251940Z 2520/2624 18012KT P6SM VCSH BKN025 OVC090
     FM252200 17008KT P6SM BKN070
     FM260900 18009KT P6SM VCSH BKN040
     FM261400 20012G20KT P6SM VCSH BKN040=

USA.gov is the U.S. government's official web portal to all federal, state and local government web resources and services.